sensor_id;sensor_type;location;lat;lon;timestamp;P1;durP1;ratioP1;P2;durP2;ratioP2
30046;SDS011;16878;52.542;13.426;2023-02-15T00:01:38;69.25;;;37.63;;
30046;SDS011;16878;52.542;13.426;2023-02-15T00:04:04;66.13;;;37.63;;
30046;SDS011;16878;52.542;13.426;2023-02-15T00:06:31;65.22;;;37.22;;
30046;SDS011;16878;52.542;13.426;2023-02-15T00:08:58;66.28;;;36.60;;
30046;SDS011;16878;52.542;13.426;2023-02-15T00:11:24;63.38;;;37.08;;
30046;SDS011;16878;52.542;13.426;2023-02-15T00:14:13;67.68;;;38.58;;
30046;SDS011;16878;52.542;13.426;2023-02-15T00:16:46;66.35;;;36.55;;
30046;SDS011;16878;52.542;13.426;2023-02-15T00:19:14;66.60;;;36.85;;
30046;SDS011;16878;52.542;13.426;2023-02-15T00:21:42;72.57;;;40.00;;
30046;SDS011;16878;52.542;13.426;2023-02-15T00:24:09;67.75;;;38.47;;
30046;SDS011;16878;52.542;13.426;2023-02-15T00:26:37;74.70;;;39.17;;
30046;SDS011;16878;52.542;13.426;2023-02-15T00:29:04;75.32;;;38.67;;
30046;SDS011;16878;52.542;13.426;2023-02-15T00:31:31;66.63;;;38.95;;
30046;SDS011;16878;52.542;13.426;2023-02-15T00:34:04;67.20;;;36.90;;
30046;SDS011;16878;52.542;13.426;2023-02-15T00:36:31;76.93;;;41.15;;
30046;SDS011;16878;52.542;13.426;2023-02-15T00:38:58;68.88;;;39.20;;
30046;SDS011;16878;52.542;13.426;2023-02-15T00:41:24;75.60;;;41.22;;
30046;SDS011;16878;52.542;13.426;2023-02-15T00:43:50;72.20;;;39.78;;
30046;SDS011;16878;52.542;13.426;2023-02-15T00:46:15;77.45;;;41.38;;
30046;SDS011;16878;52.542;13.426;2023-02-15T00:48:41;69.85;;;39.00;;
30046;SDS011;16878;52.542;13.426;2023-02-15T00:51:07;77.53;;;41.08;;
30046;SDS011;16878;52.542;13.426;2023-02-15T00:53:33;78.53;;;41.50;;
30046;SDS011;16878;52.542;13.426;2023-02-15T00:55:58;75.80;;;39.15;;
30046;SDS011;16878;52.542;13.426;2023-02-15T00:58:24;75.75;;;39.55;;
30046;SDS011;16878;52.542;13.426;2023-02-15T01:00:50;74.50;;;39.80;;
30046;SDS011;16878;52.542;13.426;2023-02-15T01:03:18;73.50;;;40.22;;
30046;SDS011;16878;52.542;13.426;2023-02-15T01:05:46;74.68;;;41.95;;
30046;SDS011;16878;52.542;13.426;2023-02-15T01:08:13;83.70;;;43.88;;
30046;SDS011;16878;52.542;13.426;2023-02-15T01:10:39;76.13;;;43.78;;
30046;SDS011;16878;52.542;13.426;2023-02-15T01:13:05;79.57;;;44.08;;
30046;SDS011;16878;52.542;13.426;2023-02-15T01:15:33;84.18;;;47.70;;
30046;SDS011;16878;52.542;13.426;2023-02-15T01:18:02;84.30;;;46.77;;
30046;SDS011;16878;52.542;13.426;2023-02-15T01:20:28;72.87;;;38.43;;
30046;SDS011;16878;52.542;13.426;2023-02-15T01:22:54;75.07;;;40.70;;
30046;SDS011;16878;52.542;13.426;2023-02-15T01:25:22;80.93;;;43.97;;
30046;SDS011;16878;52.542;13.426;2023-02-15T01:27:49;74.90;;;43.00;;
30046;SDS011;16878;52.542;13.426;2023-02-15T01:30:15;82.38;;;41.65;;
30046;SDS011;16878;52.542;13.426;2023-02-15T01:32:44;79.85;;;41.40;;
30046;SDS011;16878;52.542;13.426;2023-02-15T01:35:10;81.95;;;42.97;;
30046;SDS011;16878;52.542;13.426;2023-02-15T01:37:36;80.47;;;42.40;;
30046;SDS011;16878;52.542;13.426;2023-02-15T01:40:03;91.18;;;42.65;;
30046;SDS011;16878;52.542;13.426;2023-02-15T01:42:31;80.53;;;41.53;;
30046;SDS011;16878;52.542;13.426;2023-02-15T01:44:57;82.28;;;42.13;;
30046;SDS011;16878;52.542;13.426;2023-02-15T01:52:44;80.38;;;41.33;;
30046;SDS011;16878;52.542;13.426;2023-02-15T01:55:33;86.97;;;44.10;;
30046;SDS011;16878;52.542;13.426;2023-02-15T01:58:04;85.40;;;45.03;;
30046;SDS011;16878;52.542;13.426;2023-02-15T02:00:31;89.07;;;43.67;;
30046;SDS011;16878;52.542;13.426;2023-02-15T02:02:59;87.53;;;43.10;;
30046;SDS011;16878;52.542;13.426;2023-02-15T02:05:26;84.63;;;43.00;;
30046;SDS011;16878;52.542;13.426;2023-02-15T02:07:54;80.35;;;43.35;;
30046;SDS011;16878;52.542;13.426;2023-02-15T02:10:23;85.65;;;43.03;;
30046;SDS011;16878;52.542;13.426;2023-02-15T02:12:50;86.88;;;43.05;;
30046;SDS011;16878;52.542;13.426;2023-02-15T02:15:20;81.75;;;43.53;;
30046;SDS011;16878;52.542;13.426;2023-02-15T02:18:12;86.28;;;43.25;;
30046;SDS011;16878;52.542;13.426;2023-02-15T02:20:47;91.18;;;45.65;;
30046;SDS011;16878;52.542;13.426;2023-02-15T02:34:46;91.53;;;47.53;;
30046;SDS011;16878;52.542;13.426;2023-02-15T02:44:59;93.72;;;48.90;;
30046;SDS011;16878;52.542;13.426;2023-02-15T02:47:40;100.05;;;47.83;;
30046;SDS011;16878;52.542;13.426;2023-02-15T02:50:38;100.43;;;48.53;;
30046;SDS011;16878;52.542;13.426;2023-02-15T02:53:03;96.07;;;47.78;;
30046;SDS011;16878;52.542;13.426;2023-02-15T03:01:10;101.53;;;51.20;;
30046;SDS011;16878;52.542;13.426;2023-02-15T03:06:17;112.85;;;52.42;;
30046;SDS011;16878;52.542;13.426;2023-02-15T03:08:47;126.35;;;54.70;;
30046;SDS011;16878;52.542;13.426;2023-02-15T03:11:16;127.22;;;57.35;;
30046;SDS011;16878;52.542;13.426;2023-02-15T03:13:42;119.38;;;54.08;;
30046;SDS011;16878;52.542;13.426;2023-02-15T03:16:10;110.50;;;52.40;;
30046;SDS011;16878;52.542;13.426;2023-02-15T03:18:56;125.43;;;55.28;;
30046;SDS011;16878;52.542;13.426;2023-02-15T03:21:35;117.78;;;54.75;;
30046;SDS011;16878;52.542;13.426;2023-02-15T03:24:14;122.35;;;55.15;;
30046;SDS011;16878;52.542;13.426;2023-02-15T03:26:47;117.82;;;55.70;;
30046;SDS011;16878;52.542;13.426;2023-02-15T03:29:17;131.52;;;59.08;;
30046;SDS011;16878;52.542;13.426;2023-02-15T03:31:45;130.98;;;57.35;;
30046;SDS011;16878;52.542;13.426;2023-02-15T03:34:16;124.00;;;57.33;;
30046;SDS011;16878;52.542;13.426;2023-02-15T03:36:46;127.28;;;57.65;;
30046;SDS011;16878;52.542;13.426;2023-02-15T03:42:19;134.05;;;56.70;;
30046;SDS011;16878;52.542;13.426;2023-02-15T03:44:56;129.75;;;57.25;;
30046;SDS011;16878;52.542;13.426;2023-02-15T03:47:26;123.40;;;56.67;;
30046;SDS011;16878;52.542;13.426;2023-02-15T03:52:50;126.30;;;58.97;;
30046;SDS011;16878;52.542;13.426;2023-02-15T03:55:16;133.07;;;58.67;;
30046;SDS011;16878;52.542;13.426;2023-02-15T03:57:42;129.43;;;57.70;;
30046;SDS011;16878;52.542;13.426;2023-02-15T04:00:27;134.13;;;59.15;;
30046;SDS011;16878;52.542;13.426;2023-02-15T04:06:03;153.45;;;61.13;;
30046;SDS011;16878;52.542;13.426;2023-02-15T04:08:29;143.60;;;61.22;;
30046;SDS011;16878;52.542;13.426;2023-02-15T04:11:13;142.25;;;59.67;;
30046;SDS011;16878;52.542;13.426;2023-02-15T04:13:39;130.50;;;57.00;;
30046;SDS011;16878;52.542;13.426;2023-02-15T04:16:05;140.45;;;58.47;;
30046;SDS011;16878;52.542;13.426;2023-02-15T04:18:37;135.30;;;57.83;;
30046;SDS011;16878;52.542;13.426;2023-02-15T04:21:23;130.60;;;56.25;;
30046;SDS011;16878;52.542;13.426;2023-02-15T04:24:09;126.35;;;56.05;;
30046;SDS011;16878;52.542;13.426;2023-02-15T04:26:54;131.07;;;57.00;;
30046;SDS011;16878;52.542;13.426;2023-02-15T04:29:21;135.20;;;59.80;;
30046;SDS011;16878;52.542;13.426;2023-02-15T04:31:48;131.60;;;56.80;;
30046;SDS011;16878;52.542;13.426;2023-02-15T04:34:15;135.80;;;58.45;;
30046;SDS011;16878;52.542;13.426;2023-02-15T04:36:41;133.63;;;56.38;;
30046;SDS011;16878;52.542;13.426;2023-02-15T04:39:07;117.53;;;54.38;;
30046;SDS011;16878;52.542;13.426;2023-02-15T04:41:43;128.30;;;56.47;;
30046;SDS011;16878;52.542;13.426;2023-02-15T04:44:09;124.97;;;53.75;;
30046;SDS011;16878;52.542;13.426;2023-02-15T04:46:35;126.00;;;56.50;;
30046;SDS011;16878;52.542;13.426;2023-02-15T04:49:00;128.70;;;55.00;;
30046;SDS011;16878;52.542;13.426;2023-02-15T04:51:26;127.97;;;54.53;;
30046;SDS011;16878;52.542;13.426;2023-02-15T04:53:52;122.75;;;54.33;;
30046;SDS011;16878;52.542;13.426;2023-02-15T04:56:18;123.15;;;53.88;;
30046;SDS011;16878;52.542;13.426;2023-02-15T04:58:44;139.98;;;59.13;;
30046;SDS011;16878;52.542;13.426;2023-02-15T05:01:10;119.40;;;51.90;;
30046;SDS011;16878;52.542;13.426;2023-02-15T05:03:36;122.45;;;53.92;;
30046;SDS011;16878;52.542;13.426;2023-02-15T05:06:02;131.38;;;54.75;;
30046;SDS011;16878;52.542;13.426;2023-02-15T05:08:28;126.13;;;52.88;;
30046;SDS011;16878;52.542;13.426;2023-02-15T05:10:54;123.93;;;53.15;;
30046;SDS011;16878;52.542;13.426;2023-02-15T05:13:20;123.07;;;53.45;;
30046;SDS011;16878;52.542;13.426;2023-02-15T05:15:46;123.07;;;53.72;;
30046;SDS011;16878;52.542;13.426;2023-02-15T05:18:14;121.50;;;53.78;;
30046;SDS011;16878;52.542;13.426;2023-02-15T05:20:40;124.18;;;54.42;;
30046;SDS011;16878;52.542;13.426;2023-02-15T05:23:06;122.53;;;53.55;;
30046;SDS011;16878;52.542;13.426;2023-02-15T05:25:32;126.32;;;53.83;;
30046;SDS011;16878;52.542;13.426;2023-02-15T05:28:16;125.95;;;55.45;;
30046;SDS011;16878;52.542;13.426;2023-02-15T05:30:44;115.70;;;51.80;;
30046;SDS011;16878;52.542;13.426;2023-02-15T05:33:24;115.82;;;51.25;;
30046;SDS011;16878;52.542;13.426;2023-02-15T05:35:50;125.20;;;55.15;;
30046;SDS011;16878;52.542;13.426;2023-02-15T05:38:16;131.00;;;54.55;;
30046;SDS011;16878;52.542;13.426;2023-02-15T05:40:41;128.25;;;54.42;;
30046;SDS011;16878;52.542;13.426;2023-02-15T05:43:07;133.38;;;54.15;;
30046;SDS011;16878;52.542;13.426;2023-02-15T05:45:33;131.35;;;54.47;;
30046;SDS011;16878;52.542;13.426;2023-02-15T05:47:58;124.43;;;53.78;;
30046;SDS011;16878;52.542;13.426;2023-02-15T05:50:24;128.40;;;55.80;;
30046;SDS011;16878;52.542;13.426;2023-02-15T05:52:51;122.32;;;53.13;;
30046;SDS011;16878;52.542;13.426;2023-02-15T05:55:17;130.55;;;53.97;;
30046;SDS011;16878;52.542;13.426;2023-02-15T05:57:42;126.80;;;51.90;;
30046;SDS011;16878;52.542;13.426;2023-02-15T06:00:08;132.73;;;56.58;;
30046;SDS011;16878;52.542;13.426;2023-02-15T06:02:35;133.70;;;55.70;;
30046;SDS011;16878;52.542;13.426;2023-02-15T06:05:02;134.10;;;55.47;;
30046;SDS011;16878;52.542;13.426;2023-02-15T06:07:29;132.35;;;55.42;;
30046;SDS011;16878;52.542;13.426;2023-02-15T06:09:55;153.70;;;61.38;;
30046;SDS011;16878;52.542;13.426;2023-02-15T06:12:20;132.43;;;56.80;;
30046;SDS011;16878;52.542;13.426;2023-02-15T06:14:46;142.55;;;56.58;;
30046;SDS011;16878;52.542;13.426;2023-02-15T06:17:12;145.68;;;58.78;;
30046;SDS011;16878;52.542;13.426;2023-02-15T06:19:37;137.05;;;55.85;;
30046;SDS011;16878;52.542;13.426;2023-02-15T06:22:03;145.55;;;58.17;;
30046;SDS011;16878;52.542;13.426;2023-02-15T06:24:29;147.25;;;59.20;;
30046;SDS011;16878;52.542;13.426;2023-02-15T06:26:54;138.20;;;58.08;;
30046;SDS011;16878;52.542;13.426;2023-02-15T06:29:20;151.25;;;61.92;;
30046;SDS011;16878;52.542;13.426;2023-02-15T06:31:46;148.02;;;58.40;;
30046;SDS011;16878;52.542;13.426;2023-02-15T06:34:11;155.35;;;59.00;;
30046;SDS011;16878;52.542;13.426;2023-02-15T06:36:37;142.05;;;57.33;;
30046;SDS011;16878;52.542;13.426;2023-02-15T06:39:03;146.45;;;56.42;;
30046;SDS011;16878;52.542;13.426;2023-02-15T06:41:29;146.80;;;58.30;;
30046;SDS011;16878;52.542;13.426;2023-02-15T06:43:55;150.60;;;57.40;;
30046;SDS011;16878;52.542;13.426;2023-02-15T06:46:20;144.90;;;57.30;;
30046;SDS011;16878;52.542;13.426;2023-02-15T06:48:46;138.75;;;57.67;;
30046;SDS011;16878;52.542;13.426;2023-02-15T06:51:12;145.68;;;56.17;;
30046;SDS011;16878;52.542;13.426;2023-02-15T06:53:38;148.70;;;59.35;;
30046;SDS011;16878;52.542;13.426;2023-02-15T06:56:07;156.95;;;58.92;;
30046;SDS011;16878;52.542;13.426;2023-02-15T06:58:34;152.70;;;58.20;;
30046;SDS011;16878;52.542;13.426;2023-02-15T07:01:08;138.15;;;54.65;;
30046;SDS011;16878;52.542;13.426;2023-02-15T07:03:34;144.38;;;56.65;;
30046;SDS011;16878;52.542;13.426;2023-02-15T07:06:01;142.98;;;55.80;;
30046;SDS011;16878;52.542;13.426;2023-02-15T07:08:30;146.73;;;57.08;;
30046;SDS011;16878;52.542;13.426;2023-02-15T07:10:56;149.63;;;58.42;;
30046;SDS011;16878;52.542;13.426;2023-02-15T07:13:45;164.55;;;58.80;;
30046;SDS011;16878;52.542;13.426;2023-02-15T07:16:11;151.70;;;57.88;;
30046;SDS011;16878;52.542;13.426;2023-02-15T07:18:37;144.07;;;56.47;;
30046;SDS011;16878;52.542;13.426;2023-02-15T07:21:04;139.57;;;53.50;;
30046;SDS011;16878;52.542;13.426;2023-02-15T07:23:32;136.50;;;55.53;;
30046;SDS011;16878;52.542;13.426;2023-02-15T07:26:00;159.23;;;58.90;;
30046;SDS011;16878;52.542;13.426;2023-02-15T07:28:27;145.73;;;55.58;;
30046;SDS011;16878;52.542;13.426;2023-02-15T07:30:53;154.23;;;59.08;;
30046;SDS011;16878;52.542;13.426;2023-02-15T07:33:18;149.55;;;57.53;;
30046;SDS011;16878;52.542;13.426;2023-02-15T07:35:56;148.02;;;59.00;;
30046;SDS011;16878;52.542;13.426;2023-02-15T07:38:23;145.73;;;53.85;;
30046;SDS011;16878;52.542;13.426;2023-02-15T07:40:51;143.98;;;57.17;;
30046;SDS011;16878;52.542;13.426;2023-02-15T07:43:16;158.20;;;58.35;;
30046;SDS011;16878;52.542;13.426;2023-02-15T07:45:42;201.68;;;55.80;;
30046;SDS011;16878;52.542;13.426;2023-02-15T07:48:08;175.73;;;52.42;;
30046;SDS011;16878;52.542;13.426;2023-02-15T07:50:34;133.38;;;54.20;;
30046;SDS011;16878;52.542;13.426;2023-02-15T07:53:11;155.77;;;55.28;;
30046;SDS011;16878;52.542;13.426;2023-02-15T07:55:46;146.40;;;56.58;;
30046;SDS011;16878;52.542;13.426;2023-02-15T07:58:19;135.93;;;54.22;;
30046;SDS011;16878;52.542;13.426;2023-02-15T08:00:46;136.38;;;56.30;;
30046;SDS011;16878;52.542;13.426;2023-02-15T08:03:27;134.85;;;55.50;;
30046;SDS011;16878;52.542;13.426;2023-02-15T08:05:56;143.90;;;55.60;;
30046;SDS011;16878;52.542;13.426;2023-02-15T08:08:35;136.57;;;56.00;;
30046;SDS011;16878;52.542;13.426;2023-02-15T08:16:42;141.52;;;53.17;;
30046;SDS011;16878;52.542;13.426;2023-02-15T08:19:11;117.72;;;53.05;;
30046;SDS011;16878;52.542;13.426;2023-02-15T08:21:57;128.60;;;54.35;;
30046;SDS011;16878;52.542;13.426;2023-02-15T08:24:39;125.18;;;53.08;;
30046;SDS011;16878;52.542;13.426;2023-02-15T08:27:09;132.43;;;54.83;;
30046;SDS011;16878;52.542;13.426;2023-02-15T08:29:38;124.28;;;53.85;;
30046;SDS011;16878;52.542;13.426;2023-02-15T08:32:08;139.90;;;55.30;;
30046;SDS011;16878;52.542;13.426;2023-02-15T08:34:40;136.32;;;54.95;;
30046;SDS011;16878;52.542;13.426;2023-02-15T08:37:10;143.00;;;56.13;;
30046;SDS011;16878;52.542;13.426;2023-02-15T08:39:36;133.82;;;55.20;;
30046;SDS011;16878;52.542;13.426;2023-02-15T08:42:05;132.23;;;55.55;;
30046;SDS011;16878;52.542;13.426;2023-02-15T08:44:34;146.02;;;56.80;;
30046;SDS011;16878;52.542;13.426;2023-02-15T08:47:03;152.95;;;58.50;;
30046;SDS011;16878;52.542;13.426;2023-02-15T08:49:29;161.10;;;60.13;;
30046;SDS011;16878;52.542;13.426;2023-02-15T08:51:55;139.48;;;55.22;;
30046;SDS011;16878;52.542;13.426;2023-02-15T08:54:21;142.63;;;57.10;;
30046;SDS011;16878;52.542;13.426;2023-02-15T08:56:47;134.73;;;54.20;;
30046;SDS011;16878;52.542;13.426;2023-02-15T08:59:17;129.38;;;53.72;;
30046;SDS011;16878;52.542;13.426;2023-02-15T09:01:45;127.72;;;54.00;;
30046;SDS011;16878;52.542;13.426;2023-02-15T09:04:12;123.93;;;54.58;;
30046;SDS011;16878;52.542;13.426;2023-02-15T09:06:41;123.53;;;53.27;;
30046;SDS011;16878;52.542;13.426;2023-02-15T09:09:09;142.33;;;53.20;;
30046;SDS011;16878;52.542;13.426;2023-02-15T09:11:37;144.27;;;52.85;;
30046;SDS011;16878;52.542;13.426;2023-02-15T09:14:06;137.77;;;54.05;;
30046;SDS011;16878;52.542;13.426;2023-02-15T09:16:41;115.40;;;53.60;;
30046;SDS011;16878;52.542;13.426;2023-02-15T09:19:14;123.38;;;52.05;;
30046;SDS011;16878;52.542;13.426;2023-02-15T09:21:40;124.18;;;51.17;;
30046;SDS011;16878;52.542;13.426;2023-02-15T09:24:07;122.97;;;50.45;;
30046;SDS011;16878;52.542;13.426;2023-02-15T09:26:36;136.05;;;52.10;;
30046;SDS011;16878;52.542;13.426;2023-02-15T09:29:05;116.13;;;50.42;;
30046;SDS011;16878;52.542;13.426;2023-02-15T09:31:41;127.25;;;53.70;;
30046;SDS011;16878;52.542;13.426;2023-02-15T09:34:10;133.32;;;50.97;;
30046;SDS011;16878;52.542;13.426;2023-02-15T09:36:38;126.18;;;50.63;;
30046;SDS011;16878;52.542;13.426;2023-02-15T09:39:20;117.38;;;51.40;;
30046;SDS011;16878;52.542;13.426;2023-02-15T09:47:28;108.95;;;47.88;;
30046;SDS011;16878;52.542;13.426;2023-02-15T10:01:00;106.60;;;48.15;;
30046;SDS011;16878;52.542;13.426;2023-02-15T10:20:23;89.03;;;45.70;;
30046;SDS011;16878;52.542;13.426;2023-02-15T10:41:00;86.22;;;44.63;;
30046;SDS011;16878;52.542;13.426;2023-02-15T10:46:04;81.43;;;43.20;;
30046;SDS011;16878;52.542;13.426;2023-02-15T10:51:58;84.50;;;40.60;;
30046;SDS011;16878;52.542;13.426;2023-02-15T10:54:39;73.78;;;40.17;;
30046;SDS011;16878;52.542;13.426;2023-02-15T10:57:22;79.53;;;41.15;;
30046;SDS011;16878;52.542;13.426;2023-02-15T11:07:55;85.40;;;42.15;;
30046;SDS011;16878;52.542;13.426;2023-02-15T11:10:29;81.13;;;40.40;;
30046;SDS011;16878;52.542;13.426;2023-02-15T11:13:19;73.00;;;39.58;;
30046;SDS011;16878;52.542;13.426;2023-02-15T11:18:41;79.90;;;39.63;;
30046;SDS011;16878;52.542;13.426;2023-02-15T11:23:49;69.50;;;37.72;;
30046;SDS011;16878;52.542;13.426;2023-02-15T11:26:21;70.95;;;38.35;;
30046;SDS011;16878;52.542;13.426;2023-02-15T11:28:54;71.38;;;38.92;;
30046;SDS011;16878;52.542;13.426;2023-02-15T11:31:44;72.05;;;37.97;;
30046;SDS011;16878;52.542;13.426;2023-02-15T11:34:34;68.93;;;37.15;;
30046;SDS011;16878;52.542;13.426;2023-02-15T11:37:07;66.50;;;36.00;;
30046;SDS011;16878;52.542;13.426;2023-02-15T11:39:37;70.40;;;37.15;;
30046;SDS011;16878;52.542;13.426;2023-02-15T11:42:10;73.50;;;38.40;;
30046;SDS011;16878;52.542;13.426;2023-02-15T11:45:27;67.18;;;36.20;;
30046;SDS011;16878;52.542;13.426;2023-02-15T11:47:48;64.68;;;35.28;;
30046;SDS011;16878;52.542;13.426;2023-02-15T11:50:19;65.13;;;35.42;;
30046;SDS011;16878;52.542;13.426;2023-02-15T11:52:49;69.30;;;35.47;;
30046;SDS011;16878;52.542;13.426;2023-02-15T11:55:19;64.03;;;35.88;;
30046;SDS011;16878;52.542;13.426;2023-02-15T11:57:50;63.35;;;35.22;;
30046;SDS011;16878;52.542;13.426;2023-02-15T12:03:05;62.35;;;35.25;;
30046;SDS011;16878;52.542;13.426;2023-02-15T12:06:01;61.35;;;36.17;;
30046;SDS011;16878;52.542;13.426;2023-02-15T12:08:34;61.92;;;33.92;;
30046;SDS011;16878;52.542;13.426;2023-02-15T12:11:07;61.17;;;35.08;;
30046;SDS011;16878;52.542;13.426;2023-02-15T12:13:48;62.65;;;34.13;;
30046;SDS011;16878;52.542;13.426;2023-02-15T12:16:21;129.55;;;55.88;;
30046;SDS011;16878;52.542;13.426;2023-02-15T12:18:47;70.75;;;38.05;;
30046;SDS011;16878;52.542;13.426;2023-02-15T12:23:47;59.83;;;35.40;;
30046;SDS011;16878;52.542;13.426;2023-02-15T12:26:23;67.65;;;35.65;;
30046;SDS011;16878;52.542;13.426;2023-02-15T12:28:53;61.63;;;32.67;;
30046;SDS011;16878;52.542;13.426;2023-02-15T12:31:36;64.72;;;33.00;;
30046;SDS011;16878;52.542;13.426;2023-02-15T12:34:17;55.83;;;32.42;;
30046;SDS011;16878;52.542;13.426;2023-02-15T12:36:53;58.50;;;31.73;;
30046;SDS011;16878;52.542;13.426;2023-02-15T12:39:26;57.03;;;31.88;;
30046;SDS011;16878;52.542;13.426;2023-02-15T12:44:21;57.22;;;32.67;;
30046;SDS011;16878;52.542;13.426;2023-02-15T12:46:59;61.22;;;34.63;;
30046;SDS011;16878;52.542;13.426;2023-02-15T12:49:35;55.70;;;34.10;;
30046;SDS011;16878;52.542;13.426;2023-02-15T12:54:53;55.00;;;32.45;;
30046;SDS011;16878;52.542;13.426;2023-02-15T12:57:32;57.92;;;33.42;;
30046;SDS011;16878;52.542;13.426;2023-02-15T13:00:00;58.42;;;33.00;;
30046;SDS011;16878;52.542;13.426;2023-02-15T13:03:14;57.78;;;31.58;;
30046;SDS011;16878;52.542;13.426;2023-02-15T13:08:03;54.63;;;31.50;;
30046;SDS011;16878;52.542;13.426;2023-02-15T13:10:54;52.35;;;31.42;;
30046;SDS011;16878;52.542;13.426;2023-02-15T13:13:30;59.55;;;32.15;;
30046;SDS011;16878;52.542;13.426;2023-02-15T13:16:03;55.38;;;31.77;;
30046;SDS011;16878;52.542;13.426;2023-02-15T13:18:36;60.03;;;31.73;;
30046;SDS011;16878;52.542;13.426;2023-02-15T13:24:00;56.50;;;32.78;;
30046;SDS011;16878;52.542;13.426;2023-02-15T13:26:32;52.30;;;31.52;;
30046;SDS011;16878;52.542;13.426;2023-02-15T13:29:01;54.63;;;32.42;;
30046;SDS011;16878;52.542;13.426;2023-02-15T13:31:41;53.20;;;31.45;;
30046;SDS011;16878;52.542;13.426;2023-02-15T13:40:02;64.95;;;34.08;;
30046;SDS011;16878;52.542;13.426;2023-02-15T13:42:46;62.05;;;32.92;;
30046;SDS011;16878;52.542;13.426;2023-02-15T13:48:00;48.92;;;30.10;;
30046;SDS011;16878;52.542;13.426;2023-02-15T13:50:51;59.03;;;33.47;;
30046;SDS011;16878;52.542;13.426;2023-02-15T13:56:24;57.03;;;31.52;;
30046;SDS011;16878;52.542;13.426;2023-02-15T14:06:55;53.83;;;31.37;;
30046;SDS011;16878;52.542;13.426;2023-02-15T14:09:40;49.45;;;30.15;;
30046;SDS011;16878;52.542;13.426;2023-02-15T14:23:58;49.85;;;30.20;;
30046;SDS011;16878;52.542;13.426;2023-02-15T14:27:04;54.65;;;30.13;;
30046;SDS011;16878;52.542;13.426;2023-02-15T14:35:14;53.08;;;29.08;;
30046;SDS011;16878;52.542;13.426;2023-02-15T14:40:30;52.63;;;28.95;;
30046;SDS011;16878;52.542;13.426;2023-02-15T14:43:23;46.83;;;28.73;;
30046;SDS011;16878;52.542;13.426;2023-02-15T14:48:38;50.63;;;29.98;;
30046;SDS011;16878;52.542;13.426;2023-02-15T14:56:42;55.75;;;29.30;;
30046;SDS011;16878;52.542;13.426;2023-02-15T14:59:21;47.15;;;27.30;;
30046;SDS011;16878;52.542;13.426;2023-02-15T15:01:58;44.03;;;28.02;;
30046;SDS011;16878;52.542;13.426;2023-02-15T15:04:36;52.47;;;30.58;;
30046;SDS011;16878;52.542;13.426;2023-02-15T15:07:25;55.05;;;31.17;;
30046;SDS011;16878;52.542;13.426;2023-02-15T15:12:51;49.33;;;29.92;;
30046;SDS011;16878;52.542;13.426;2023-02-15T15:17:54;49.33;;;29.52;;
30046;SDS011;16878;52.542;13.426;2023-02-15T15:23:36;60.70;;;35.13;;
30046;SDS011;16878;52.542;13.426;2023-02-15T15:26:20;54.45;;;30.63;;
30046;SDS011;16878;52.542;13.426;2023-02-15T15:31:32;54.67;;;29.20;;
30046;SDS011;16878;52.542;13.426;2023-02-15T15:37:16;57.17;;;29.80;;
30046;SDS011;16878;52.542;13.426;2023-02-15T15:43:31;57.45;;;32.80;;
30046;SDS011;16878;52.542;13.426;2023-02-15T15:46:13;51.70;;;29.23;;
30046;SDS011;16878;52.542;13.426;2023-02-15T15:49:08;52.53;;;30.35;;
30046;SDS011;16878;52.542;13.426;2023-02-15T15:51:41;64.70;;;31.48;;
30046;SDS011;16878;52.542;13.426;2023-02-15T15:54:12;56.83;;;31.33;;
30046;SDS011;16878;52.542;13.426;2023-02-15T15:56:48;57.15;;;32.17;;
30046;SDS011;16878;52.542;13.426;2023-02-15T15:59:39;61.95;;;31.63;;
30046;SDS011;16878;52.542;13.426;2023-02-15T16:02:11;63.97;;;33.90;;
30046;SDS011;16878;52.542;13.426;2023-02-15T16:04:43;59.53;;;30.58;;
30046;SDS011;16878;52.542;13.426;2023-02-15T16:09:54;63.65;;;31.73;;
30046;SDS011;16878;52.542;13.426;2023-02-15T16:12:34;67.25;;;34.75;;
30046;SDS011;16878;52.542;13.426;2023-02-15T16:15:04;68.30;;;32.20;;
30046;SDS011;16878;52.542;13.426;2023-02-15T16:17:41;62.00;;;33.30;;
30046;SDS011;16878;52.542;13.426;2023-02-15T16:20:16;64.20;;;33.38;;
30046;SDS011;16878;52.542;13.426;2023-02-15T16:22:55;64.25;;;31.75;;
30046;SDS011;16878;52.542;13.426;2023-02-15T16:28:23;58.17;;;32.03;;
30046;SDS011;16878;52.542;13.426;2023-02-15T16:31:07;74.55;;;32.55;;
30046;SDS011;16878;52.542;13.426;2023-02-15T16:33:38;61.53;;;31.40;;
30046;SDS011;16878;52.542;13.426;2023-02-15T16:36:11;59.30;;;31.13;;
30046;SDS011;16878;52.542;13.426;2023-02-15T16:41:11;52.05;;;29.05;;
30046;SDS011;16878;52.542;13.426;2023-02-15T16:43:40;62.03;;;31.23;;
30046;SDS011;16878;52.542;13.426;2023-02-15T16:46:51;67.05;;;34.28;;
30046;SDS011;16878;52.542;13.426;2023-02-15T16:48:59;56.58;;;31.55;;
30046;SDS011;16878;52.542;13.426;2023-02-15T16:51:30;69.65;;;34.60;;
30046;SDS011;16878;52.542;13.426;2023-02-15T16:54:02;55.38;;;31.73;;
30046;SDS011;16878;52.542;13.426;2023-02-15T16:56:31;63.42;;;32.55;;
30046;SDS011;16878;52.542;13.426;2023-02-15T16:58:58;58.50;;;32.53;;
30046;SDS011;16878;52.542;13.426;2023-02-15T17:01:29;61.88;;;34.67;;
30046;SDS011;16878;52.542;13.426;2023-02-15T17:09:44;64.70;;;36.72;;
30046;SDS011;16878;52.542;13.426;2023-02-15T17:15:35;65.43;;;36.08;;
30046;SDS011;16878;52.542;13.426;2023-02-15T17:20:50;72.38;;;39.97;;
30046;SDS011;16878;52.542;13.426;2023-02-15T17:26:21;78.05;;;39.95;;
30046;SDS011;16878;52.542;13.426;2023-02-15T17:29:02;75.05;;;40.63;;
30046;SDS011;16878;52.542;13.426;2023-02-15T17:31:47;85.43;;;42.47;;
30046;SDS011;16878;52.542;13.426;2023-02-15T17:42:47;65.30;;;36.38;;
30046;SDS011;16878;52.542;13.426;2023-02-15T17:45:13;83.10;;;40.65;;
30046;SDS011;16878;52.542;13.426;2023-02-15T17:47:39;81.07;;;44.47;;
30046;SDS011;16878;52.542;13.426;2023-02-15T17:50:06;75.85;;;44.25;;
30046;SDS011;16878;52.542;13.426;2023-02-15T17:52:33;88.85;;;45.35;;
30046;SDS011;16878;52.542;13.426;2023-02-15T17:55:01;90.28;;;48.60;;
30046;SDS011;16878;52.542;13.426;2023-02-15T17:57:55;92.53;;;44.60;;
30046;SDS011;16878;52.542;13.426;2023-02-15T18:00:24;90.00;;;43.30;;
30046;SDS011;16878;52.542;13.426;2023-02-15T18:03:11;92.28;;;45.17;;
30046;SDS011;16878;52.542;13.426;2023-02-15T18:05:56;78.75;;;44.08;;
30046;SDS011;16878;52.542;13.426;2023-02-15T18:08:40;90.22;;;45.05;;
30046;SDS011;16878;52.542;13.426;2023-02-15T18:11:25;95.72;;;48.33;;
30046;SDS011;16878;52.542;13.426;2023-02-15T18:14:06;79.35;;;44.97;;
30046;SDS011;16878;52.542;13.426;2023-02-15T18:16:34;95.32;;;47.75;;
30046;SDS011;16878;52.542;13.426;2023-02-15T18:19:29;101.70;;;48.90;;
30046;SDS011;16878;52.542;13.426;2023-02-15T18:21:54;88.82;;;47.65;;